Time;durP1;ratioP1;P1;durP2;ratioP2;P2;SDS_P1;SDS_P2;PMS_P1;PMS_P2;Temp;Humidity;BMP_temperature;BMP_pressure;BME280_temperature;BME280_humidity;BME280_pressure;Samples;Min_cycle;Max_cycle;Signal;HPM_P1;HPM_P2
2024/01/24 00:00:01;;;;;;;;;;;7.90;99.90;;;;;;5005645;28;19936;-75
2024/01/24 00:02:48;;;;;;;;;;;7.90;99.90;;;;;;4998751;28;20230;-75
2024/01/24 00:05:35;;;;;;;;;;;7.90;99.90;;;;;;5011005;28;19965;-76
2024/01/24 00:08:21;;;;;;;;;;;7.90;99.90;;;;;;5009980;28;19972;-75
2024/01/24 00:11:06;;;;;;;;;;;8.00;99.90;;;;;;4985898;28;20352;-75
2024/01/24 00:13:52;;;;;;;;;;;8.00;99.90;;;;;;4985624;28;19918;-76
2024/01/24 00:16:38;;;;;;;;;;;8.00;99.90;;;;;;4998928;28;19914;-76
2024/01/24 00:19:25;;;;;;;;;;;8.00;99.90;;;;;;5013600;28;19948;-76
2024/01/24 00:22:14;;;;;;;;;;;8.00;99.90;;;;;;4999517;28;19917;-75
2024/01/24 00:25:03;;;;;;;;;;;8.00;99.90;;;;;;4991058;28;20524;-76
2024/01/24 00:27:49;;;;;;;;;;;8.10;99.90;;;;;;4998725;28;20333;-75
2024/01/24 00:30:34;;;;;;;;;;;8.10;99.90;;;;;;5006105;28;19921;-75
2024/01/24 00:33:20;;;;;;;;;;;8.10;99.90;;;;;;4999327;28;20227;-75
2024/01/24 00:36:06;;;;;;;;;;;8.10;99.90;;;;;;5004707;28;19924;-75
2024/01/24 00:38:52;;;;;;;;;;;8.10;99.90;;;;;;5005942;28;20047;-76
2024/01/24 00:41:40;;;;;;;;;;;8.10;99.90;;;;;;5009995;28;20020;-76
2024/01/24 00:44:25;;;;;;;;;;;8.10;99.90;;;;;;4998554;28;20000;-75
2024/01/24 00:47:12;;;;;;;;;;;8.20;99.90;;;;;;5003188;28;19928;-75
2024/01/24 00:49:58;;;;;;;;;;;8.20;99.90;;;;;;5002313;28;20035;-75
2024/01/24 00:52:44;;;;;;;;;;;8.20;99.90;;;;;;5002161;28;19949;-76
2024/01/24 00:55:30;;;;;;;;;;;8.30;99.90;;;;;;5003497;28;19917;-75
2024/01/24 00:58:17;;;;;;;;;;;8.30;99.90;;;;;;5004380;28;19917;-75
2024/01/24 01:01:02;;;;;;;;;;;8.30;99.90;;;;;;5008270;28;19917;-75
2024/01/24 01:03:48;;;;;;;;;;;8.30;99.90;;;;;;4999273;28;20298;-75
2024/01/24 01:06:34;;;;;;;;;;;8.40;99.90;;;;;;5021213;28;19932;-75
2024/01/24 01:09:20;;;;;;;;;;;8.40;99.90;;;;;;5008347;28;19957;-75
2024/01/24 01:12:06;;;;;;;;;;;8.50;99.90;;;;;;5019241;28;19967;-75
2024/01/24 01:14:52;;;;;;;;;;;8.50;99.90;;;;;;5005749;28;19963;-75
2024/01/24 01:17:38;;;;;;;;;;;8.50;99.90;;;;;;5009134;28;20322;-76
2024/01/24 01:20:24;;;;;;;;;;;8.50;99.90;;;;;;5008392;28;19913;-76
2024/01/24 01:23:09;;;;;;;;;;;8.50;99.90;;;;;;4991584;28;19963;-75
2024/01/24 01:25:55;;;;;;;;;;;8.60;99.90;;;;;;5020910;28;19921;-76
2024/01/24 01:28:45;;;;;;;;;;;8.60;99.90;;;;;;5035181;28;19917;-75
2024/01/24 01:31:30;;;;;;;;;;;8.60;99.90;;;;;;5026832;28;19917;-75
2024/01/24 01:34:16;;;;;;;;;;;8.60;99.90;;;;;;5002284;28;19945;-77
2024/01/24 01:37:02;;;;;;;;;;;8.70;99.90;;;;;;4999810;28;19917;-76
2024/01/24 01:39:48;;;;;;;;;;;8.70;99.90;;;;;;5004679;28;19928;-76
2024/01/24 01:42:34;;;;;;;;;;;8.70;99.90;;;;;;5033531;28;19927;-76
2024/01/24 01:45:20;;;;;;;;;;;8.70;99.90;;;;;;5013180;28;20643;-75
2024/01/24 01:48:07;;;;;;;;;;;8.80;99.90;;;;;;5003438;28;19914;-75
2024/01/24 01:50:53;;;;;;;;;;;8.80;99.90;;;;;;5008411;28;19917;-75
2024/01/24 01:53:39;;;;;;;;;;;8.80;99.90;;;;;;5001232;28;20292;-75
2024/01/24 01:56:25;;;;;;;;;;;8.90;99.90;;;;;;5002211;28;19921;-75
2024/01/24 01:59:11;;;;;;;;;;;8.90;99.90;;;;;;5000903;28;19944;-76
2024/01/24 02:01:57;;;;;;;;;;;8.90;99.90;;;;;;5000879;28;19936;-75
2024/01/24 02:04:43;;;;;;;;;;;9.00;99.90;;;;;;5008244;28;19998;-75
2024/01/24 02:07:30;;;;;;;;;;;9.00;99.90;;;;;;5027524;28;20348;-75
2024/01/24 02:10:16;;;;;;;;;;;9.10;99.90;;;;;;5040426;28;20015;-75
2024/01/24 02:13:03;;;;;;;;;;;9.10;99.90;;;;;;5027136;28;19917;-75
2024/01/24 02:15:49;;;;;;;;;;;9.10;99.90;;;;;;5040390;28;20421;-75
2024/01/24 02:18:35;;;;;;;;;;;9.10;99.90;;;;;;5040799;28;20698;-75
2024/01/24 02:21:22;;;;;;;;;;;9.10;99.90;;;;;;5040133;28;19981;-75
2024/01/24 02:24:10;;;;;;;;;;;9.20;99.90;;;;;;5012943;28;19924;-76
2024/01/24 02:26:55;;;;;;;;;;;9.20;99.90;;;;;;5040488;28;20256;-75
2024/01/24 02:29:41;;;;;;;;;;;9.20;99.90;;;;;;5037798;28;19952;-76
2024/01/24 02:32:27;;;;;;;;;;;9.20;99.90;;;;;;5033007;28;19940;-75
2024/01/24 02:35:13;;;;;;;;;;;9.20;99.90;;;;;;5021418;28;19923;-75
2024/01/24 02:37:59;;;;;;;;;;;9.20;99.90;;;;;;5024210;28;19913;-75
2024/01/24 02:40:45;;;;;;;;;;;9.20;99.90;;;;;;5006422;28;19917;-75
2024/01/24 02:43:31;;;;;;;;;;;9.20;99.90;;;;;;5035125;28;19971;-75
2024/01/24 02:46:16;;;;;;;;;;;9.10;99.90;;;;;;5033932;28;20248;-75
2024/01/24 02:49:02;;;;;;;;;;;9.10;99.90;;;;;;5031688;28;20023;-75
2024/01/24 02:51:48;;;;;;;;;;;9.10;99.90;;;;;;5012513;28;19921;-75
2024/01/24 02:54:38;;;;;;;;;;;9.10;99.90;;;;;;5026257;28;19947;-75
2024/01/24 02:57:24;;;;;;;;;;;9.00;99.90;;;;;;5026527;28;19952;-73
2024/01/24 03:00:10;;;;;;;;;;;9.10;99.90;;;;;;5019879;28;19921;-74
2024/01/24 03:02:56;;;;;;;;;;;9.00;99.90;;;;;;5007117;28;19928;-74
2024/01/24 03:05:42;;;;;;;;;;;9.00;99.90;;;;;;5017611;28;19995;-74
2024/01/24 03:08:28;;;;;;;;;;;9.00;99.90;;;;;;5032948;28;19921;-74
2024/01/24 03:11:14;;;;;;;;;;;9.00;99.90;;;;;;5024000;28;20669;-75
2024/01/24 03:14:01;;;;;;;;;;;9.00;99.90;;;;;;5030497;28;20000;-74
2024/01/24 03:16:47;;;;;;;;;;;9.10;99.90;;;;;;5039883;28;19917;-74
2024/01/24 03:19:33;;;;;;;;;;;9.10;99.90;;;;;;5039201;28;19916;-74
2024/01/24 03:22:20;;;;;;;;;;;9.10;99.90;;;;;;5026359;28;19917;-74
2024/01/24 03:25:06;;;;;;;;;;;9.20;99.90;;;;;;5034894;28;20309;-74
2024/01/24 03:27:52;;;;;;;;;;;9.20;99.90;;;;;;5007032;28;19949;-75
2024/01/24 03:30:38;;;;;;;;;;;9.30;99.90;;;;;;5034233;28;20329;-74
2024/01/24 03:33:23;;;;;;;;;;;9.30;99.90;;;;;;5026280;28;19913;-74
2024/01/24 03:36:09;;;;;;;;;;;9.30;99.90;;;;;;5040685;28;19921;-74
2024/01/24 03:38:55;;;;;;;;;;;9.40;99.90;;;;;;5007151;28;20003;-74
2024/01/24 03:41:41;;;;;;;;;;;9.40;99.90;;;;;;5026477;28;19921;-74
2024/01/24 03:44:27;;;;;;;;;;;9.40;99.90;;;;;;5025285;28;20008;-74
2024/01/24 03:47:13;;;;;;;;;;;9.50;99.90;;;;;;5025554;28;19921;-74
2024/01/24 03:49:58;;;;;;;;;;;9.50;99.90;;;;;;5006491;28;19924;-74
2024/01/24 03:52:44;;;;;;;;;;;9.50;99.90;;;;;;5020082;28;20011;-74
2024/01/24 03:55:30;;;;;;;;;;;9.50;99.90;;;;;;5017347;28;19917;-74
2024/01/24 03:58:18;;;;;;;;;;;9.60;99.90;;;;;;5017849;28;19917;-74
2024/01/24 04:01:04;;;;;;;;;;;9.60;99.90;;;;;;5019776;28;19917;-74
2024/01/24 04:03:50;;;;;;;;;;;9.60;99.90;;;;;;5026010;28;20325;-74
2024/01/24 04:06:36;;;;;;;;;;;9.60;99.90;;;;;;5038921;28;19928;-74
2024/01/24 04:09:22;;;;;;;;;;;9.60;99.90;;;;;;5038015;28;19928;-74
2024/01/24 04:12:08;;;;;;;;;;;9.60;99.90;;;;;;5022995;28;20329;-74
2024/01/24 04:14:54;;;;;;;;;;;9.70;99.90;;;;;;5006851;28;19917;-74
2024/01/24 04:17:40;;;;;;;;;;;9.60;99.90;;;;;;5016073;28;19913;-74
2024/01/24 04:20:26;;;;;;;;;;;9.70;99.90;;;;;;5036125;28;19932;-74
2024/01/24 04:23:13;;;;;;;;;;;9.70;99.90;;;;;;5037126;28;19917;-74
2024/01/24 04:26:02;;;;;;;;;;;9.70;99.90;;;;;;5050649;28;20317;-79
2024/01/24 04:28:48;;;;;;;;;;;9.70;99.90;;;;;;5023567;28;19991;-78
2024/01/24 04:31:34;;;;;;;;;;;9.70;99.90;;;;;;5026244;28;19913;-76
2024/01/24 04:34:20;;;;;;;;;;;9.70;99.90;;;;;;5041115;28;19917;-77
2024/01/24 04:37:09;;;;;;;;;;;9.80;99.90;;;;;;5039236;28;19921;-76
2024/01/24 04:39:55;;;;;;;;;;;9.80;99.90;;;;;;5038939;28;19928;-76
2024/01/24 04:42:41;;;;;;;;;;;9.80;99.90;;;;;;5020428;28;20238;-77
2024/01/24 04:45:27;;;;;;;;;;;9.90;99.90;;;;;;5023293;28;19956;-77
2024/01/24 04:48:13;;;;;;;;;;;9.90;99.90;;;;;;5023691;28;20000;-76
2024/01/24 04:50:59;;;;;;;;;;;10.00;99.90;;;;;;5025943;28;19920;-76
2024/01/24 04:53:44;;;;;;;;;;;10.20;99.90;;;;;;5010109;28;20242;-77
2024/01/24 04:56:30;;;;;;;;;;;10.30;99.90;;;;;;5021028;28;19917;-77
2024/01/24 04:59:16;;;;;;;;;;;10.50;99.90;;;;;;5010265;28;20223;-77
2024/01/24 05:02:08;;;;;;;;;;;10.70;99.90;;;;;;5028523;28;19946;-77
2024/01/24 05:04:54;;;;;;;;;;;11.10;99.90;;;;;;5021881;28;20322;-77
2024/01/24 05:07:40;;;;;;;;;;;11.50;99.90;;;;;;5043858;28;19952;-77
2024/01/24 05:10:26;;;;;;;;;;;11.60;99.90;;;;;;5041880;28;19921;-76
2024/01/24 05:13:12;;;;;;;;;;;11.70;99.90;;;;;;5041984;28;20329;-77
2024/01/24 05:15:58;;;;;;;;;;;11.70;99.90;;;;;;5027915;28;19917;-77
2024/01/24 05:18:44;;;;;;;;;;;11.80;99.90;;;;;;5025394;28;20229;-77
2024/01/24 05:21:38;;;;;;;;;;;11.80;99.90;;;;;;5022338;28;19913;-77
2024/01/24 05:24:24;;;;;;;;;;;11.80;99.90;;;;;;5022369;28;19913;-78
2024/01/24 05:27:09;;;;;;;;;;;11.80;99.90;;;;;;5027917;28;19917;-78
2024/01/24 05:29:55;;;;;;;;;;;11.90;99.90;;;;;;5027281;28;19999;-77
2024/01/24 05:32:41;;;;;;;;;;;11.90;99.90;;;;;;5007196;28;19917;-77
2024/01/24 05:35:27;;;;;;;;;;;11.90;99.90;;;;;;5022644;28;20302;-78
2024/01/24 05:38:13;;;;;;;;;;;12.00;99.90;;;;;;5008977;28;19959;-77
2024/01/24 05:40:59;;;;;;;;;;;11.00;99.90;;;;;;5031334;28;20356;-78
2024/01/24 05:43:45;;;;;;;;;;;10.40;99.90;;;;;;5055546;28;19928;-76
2024/01/24 05:46:30;;;;;;;;;;;10.20;99.90;;;;;;5041079;28;19912;-76
2024/01/24 05:49:17;;;;;;;;;;;10.30;99.90;;;;;;5021753;28;19949;-76
2024/01/24 05:52:03;;;;;;;;;;;10.30;99.90;;;;;;5028133;28;19923;-78
2024/01/24 05:54:49;;;;;;;;;;;10.20;99.90;;;;;;5028328;28;19912;-77
2024/01/24 05:57:36;;;;;;;;;;;10.20;99.90;;;;;;5028515;28;19924;-77
2024/01/24 06:00:21;;;;;;;;;;;10.20;99.90;;;;;;5027654;28;19924;-76
2024/01/24 06:03:08;;;;;;;;;;;10.30;99.90;;;;;;5020275;28;20288;-76
2024/01/24 06:05:54;;;;;;;;;;;10.30;99.90;;;;;;5037854;28;19929;-77
2024/01/24 06:08:40;;;;;;;;;;;10.40;99.90;;;;;;5042295;28;19921;-77
2024/01/24 06:11:26;;;;;;;;;;;10.40;99.90;;;;;;5025307;28;20400;-77
2024/01/24 06:14:12;;;;;;;;;;;10.50;99.90;;;;;;5007044;28;19917;-77
2024/01/24 06:16:58;;;;;;;;;;;10.50;99.90;;;;;;5019250;28;20230;-77
2024/01/24 06:19:44;;;;;;;;;;;10.50;99.90;;;;;;5025736;28;19916;-77
2024/01/24 06:22:31;;;;;;;;;;;10.60;99.90;;;;;;5054347;28;20326;-79
2024/01/24 06:25:17;;;;;;;;;;;10.70;99.90;;;;;;5026309;28;19974;-77
2024/01/24 06:28:03;;;;;;;;;;;10.80;99.90;;;;;;5034814;28;19917;-77
2024/01/24 06:30:48;;;;;;;;;;;10.80;99.90;;;;;;5015158;28;20650;-77
2024/01/24 06:33:34;;;;;;;;;;;10.90;99.90;;;;;;5021336;28;19972;-77
2024/01/24 06:36:20;;;;;;;;;;;10.90;99.90;;;;;;5022076;28;19928;-76
2024/01/24 06:39:07;;;;;;;;;;;10.90;99.90;;;;;;5040773;28;19916;-78
2024/01/24 06:41:53;;;;;;;;;;;10.90;99.90;;;;;;5031716;28;20019;-78
2024/01/24 06:44:39;;;;;;;;;;;10.90;99.90;;;;;;5027022;28;19916;-80
2024/01/24 06:47:25;;;;;;;;;;;10.80;99.90;;;;;;5038852;28;20422;-79
2024/01/24 06:50:13;;;;;;;;;;;10.80;99.90;;;;;;5032369;28;20238;-78
2024/01/24 06:52:59;;;;;;;;;;;10.90;99.90;;;;;;5036056;28;19955;-79
2024/01/24 06:55:45;;;;;;;;;;;10.90;99.90;;;;;;5026805;28;19927;-79
2024/01/24 06:58:31;;;;;;;;;;;10.80;99.90;;;;;;5025811;28;19952;-78
2024/01/24 07:01:16;;;;;;;;;;;10.80;99.90;;;;;;5036161;28;20430;-76
2024/01/24 07:04:02;;;;;;;;;;;10.70;99.90;;;;;;5021573;28;19921;-77
2024/01/24 07:06:48;;;;;;;;;;;10.80;99.90;;;;;;5040134;28;19925;-78
2024/01/24 07:09:36;;;;;;;;;;;10.90;99.90;;;;;;5026041;28;19913;-78
2024/01/24 07:12:23;;;;;;;;;;;10.80;99.90;;;;;;5041359;28;19912;-78
2024/01/24 07:15:09;;;;;;;;;;;10.90;99.90;;;;;;5034959;28;19944;-79
2024/01/24 07:17:55;;;;;;;;;;;10.80;99.90;;;;;;5036271;28;19917;-78
2024/01/24 07:20:41;;;;;;;;;;;10.80;99.90;;;;;;5006744;28;19917;-77
2024/01/24 07:23:27;;;;;;;;;;;10.80;99.90;;;;;;5014545;28;20194;-76
2024/01/24 07:26:13;;;;;;;;;;;10.80;99.90;;;;;;5024831;28;19913;-76
2024/01/24 07:29:02;;;;;;;;;;;10.80;99.90;;;;;;5044254;28;19917;-78
2024/01/24 07:31:47;;;;;;;;;;;10.80;99.90;;;;;;5021419;28;19916;-76
2024/01/24 07:34:35;;;;;;;;;;;10.90;99.90;;;;;;5039655;28;19916;-76
2024/01/24 07:37:21;;;;;;;;;;;11.00;99.90;;;;;;5035479;28;20245;-75
2024/01/24 07:40:07;;;;;;;;;;;11.00;99.90;;;;;;5006195;28;19924;-76
2024/01/24 07:42:53;;;;;;;;;;;11.00;99.90;;;;;;5007407;28;19960;-77
2024/01/24 07:45:39;;;;;;;;;;;11.00;99.90;;;;;;5016810;28;20336;-78
2024/01/24 07:48:25;;;;;;;;;;;11.00;99.90;;;;;;5026837;28;19913;-76
2024/01/24 07:51:10;;;;;;;;;;;11.00;99.90;;;;;;5040376;28;20308;-76
2024/01/24 07:53:56;;;;;;;;;;;11.00;99.90;;;;;;5039301;28;19944;-75
2024/01/24 07:56:42;;;;;;;;;;;11.00;99.90;;;;;;5018346;28;19928;-76
2024/01/24 07:59:28;;;;;;;;;;;10.90;99.90;;;;;;5016416;28;20358;-76
2024/01/24 08:02:14;;;;;;;;;;;11.00;99.90;;;;;;5050075;28;19971;-76
2024/01/24 08:05:00;;;;;;;;;;;11.00;99.90;;;;;;5025089;28;20321;-76
2024/01/24 08:07:46;;;;;;;;;;;10.90;99.90;;;;;;5019500;28;19925;-76
2024/01/24 08:10:31;;;;;;;;;;;10.90;99.90;;;;;;5018946;28;19945;-76
2024/01/24 08:13:17;;;;;;;;;;;10.90;99.90;;;;;;5043551;28;19924;-76
2024/01/24 08:16:03;;;;;;;;;;;10.90;99.90;;;;;;5018976;28;19924;-76
2024/01/24 08:18:50;;;;;;;;;;;10.90;99.90;;;;;;5021315;28;19945;-78
2024/01/24 08:21:36;;;;;;;;;;;10.80;99.90;;;;;;5034154;28;19921;-76
2024/01/24 08:24:21;;;;;;;;;;;10.80;99.90;;;;;;5032415;28;19917;-77
2024/01/24 08:27:07;;;;;;;;;;;10.80;99.90;;;;;;5033438;28;19917;-77
2024/01/24 08:29:53;;;;;;;;;;;10.80;99.90;;;;;;5035899;28;20517;-76
2024/01/24 08:32:41;;;;;;;;;;;10.70;99.90;;;;;;5041931;28;19924;-76
2024/01/24 08:35:27;;;;;;;;;;;10.50;99.90;;;;;;5019778;28;19913;-76
2024/01/24 08:38:13;;;;;;;;;;;10.50;99.90;;;;;;5020473;28;20498;-77
2024/01/24 08:40:59;;;;;;;;;;;10.40;99.90;;;;;;5005720;28;19913;-76
2024/01/24 08:43:45;;;;;;;;;;;10.50;99.90;;;;;;5019484;28;20389;-76
2024/01/24 08:46:31;;;;;;;;;;;10.50;99.90;;;;;;5018376;28;20004;-76
2024/01/24 08:49:17;;;;;;;;;;;10.60;99.90;;;;;;5019017;28;19917;-76
2024/01/24 08:52:02;;;;;;;;;;;10.60;99.90;;;;;;5027640;28;19916;-75
2024/01/24 08:54:49;;;;;;;;;;;10.70;99.90;;;;;;5024171;28;20396;-76
2024/01/24 08:57:34;;;;;;;;;;;10.70;99.90;;;;;;5026207;28;19920;-78
2024/01/24 09:00:20;;;;;;;;;;;10.80;99.90;;;;;;5005786;28;20290;-78
2024/01/24 09:03:06;;;;;;;;;;;10.70;99.90;;;;;;5036631;28;20553;-77
2024/01/24 09:05:55;;;;;;;;;;;10.80;99.90;;;;;;5016465;28;19926;-76
2024/01/24 09:08:41;;;;;;;;;;;10.80;99.90;;;;;;5022416;28;19950;-76
2024/01/24 09:11:28;;;;;;;;;;;10.80;99.90;;;;;;5035443;28;20400;-76
2024/01/24 09:14:14;;;;;;;;;;;10.90;99.90;;;;;;5028079;28;19913;-77
2024/01/24 09:17:00;;;;;;;;;;;10.90;99.90;;;;;;5023261;28;19917;-76
2024/01/24 09:19:46;;;;;;;;;;;10.90;99.90;;;;;;5037894;28;19925;-77
2024/01/24 09:22:31;;;;;;;;;;;10.90;99.90;;;;;;5036229;28;19921;-76
2024/01/24 09:25:19;;;;;;;;;;;11.00;99.90;;;;;;5040643;28;19916;-76
2024/01/24 09:28:08;;;;;;;;;;;10.90;99.90;;;;;;5057318;28;20404;-76
2024/01/24 09:30:54;;;;;;;;;;;10.90;99.90;;;;;;5024170;28;19975;-76
2024/01/24 09:33:40;;;;;;;;;;;10.90;99.90;;;;;;5021983;28;20191;-79
2024/01/24 09:36:27;;;;;;;;;;;11.00;99.90;;;;;;5023174;28;19971;-78
2024/01/24 09:39:13;;;;;;;;;;;10.90;99.90;;;;;;5038063;28;19923;-78
2024/01/24 09:41:59;;;;;;;;;;;11.00;99.90;;;;;;5036713;28;19916;-78
2024/01/24 09:44:46;;;;;;;;;;;11.00;99.90;;;;;;5026567;28;19971;-78
2024/01/24 09:47:32;;;;;;;;;;;11.00;99.90;;;;;;5041523;28;20612;-77
2024/01/24 09:50:18;;;;;;;;;;;11.00;99.90;;;;;;5027664;28;19913;-77
2024/01/24 09:53:06;;;;;;;;;;;11.10;99.90;;;;;;5039058;28;19912;-77
2024/01/24 09:55:51;;;;;;;;;;;11.10;99.90;;;;;;5043842;28;19912;-76
2024/01/24 09:58:37;;;;;;;;;;;11.10;99.90;;;;;;5026242;28;20249;-77
2024/01/24 10:01:23;;;;;;;;;;;11.20;99.90;;;;;;5021837;28;19920;-77
2024/01/24 10:04:09;;;;;;;;;;;11.20;99.90;;;;;;5007554;28;20303;-78
2024/01/24 10:06:58;;;;;;;;;;;11.20;99.90;;;;;;5032506;28;19964;-77
2024/01/24 10:09:44;;;;;;;;;;;11.10;99.90;;;;;;5036099;28;20004;-79
2024/01/24 10:12:30;;;;;;;;;;;11.10;99.90;;;;;;5021660;28;20003;-78
2024/01/24 10:15:16;;;;;;;;;;;11.00;99.90;;;;;;5008720;28;19960;-78
2024/01/24 10:18:02;;;;;;;;;;;10.90;99.90;;;;;;5012306;28;19928;-75
2024/01/24 10:20:48;;;;;;;;;;;10.80;99.90;;;;;;5031617;28;20027;-75
2024/01/24 10:23:34;;;;;;;;;;;10.70;99.90;;;;;;5026031;28;19947;-75
2024/01/24 10:26:20;;;;;;;;;;;10.70;99.90;;;;;;5005620;28;19944;-75
2024/01/24 10:29:09;;;;;;;;;;;10.60;99.90;;;;;;5007664;28;19952;-75
2024/01/24 10:31:56;;;;;;;;;;;10.60;99.90;;;;;;5023552;28;19917;-75
2024/01/24 10:34:42;;;;;;;;;;;10.50;99.90;;;;;;5041836;28;19913;-77
2024/01/24 10:37:30;;;;;;;;;;;10.40;99.90;;;;;;5022519;28;19913;-77
2024/01/24 10:40:21;;;;;;;;;;;10.40;99.90;;;;;;5041379;28;19924;-78
2024/01/24 10:43:11;;;;;;;;;;;10.40;99.90;;;;;;5022543;28;19925;-75
2024/01/24 10:45:57;;;;;;;;;;;10.50;99.90;;;;;;5022451;28;19919;-77
2024/01/24 10:48:43;;;;;;;;;;;10.50;99.90;;;;;;5021852;28;19917;-76
2024/01/24 10:51:29;;;;;;;;;;;10.40;99.90;;;;;;5020239;28;19928;-78
2024/01/24 10:54:15;;;;;;;;;;;10.30;99.90;;;;;;5006300;28;19917;-76
2024/01/24 10:57:02;;;;;;;;;;;10.30;99.90;;;;;;5022575;28;20004;-77
2024/01/24 10:59:48;;;;;;;;;;;10.30;99.90;;;;;;5032867;28;20254;-77
2024/01/24 11:02:34;;;;;;;;;;;10.20;99.90;;;;;;5019893;28;19983;-77
2024/01/24 11:05:26;;;;;;;;;;;10.20;99.90;;;;;;5021313;28;20339;-77
2024/01/24 11:08:15;;;;;;;;;;;10.30;99.90;;;;;;5021053;28;20322;-76
2024/01/24 11:11:04;;;;;;;;;;;10.40;99.90;;;;;;5033116;28;19992;-76
2024/01/24 11:13:50;;;;;;;;;;;10.50;99.90;;;;;;5006203;28;19913;-77
2024/01/24 11:16:41;;;;;;;;;;;10.50;99.90;;;;;;5035126;28;19928;-78
2024/01/24 11:19:28;;;;;;;;;;;10.50;99.90;;;;;;5028749;28;19988;-77
2024/01/24 11:22:13;;;;;;;;;;;10.60;99.90;;;;;;5026048;28;20031;-76
2024/01/24 11:24:59;;;;;;;;;;;10.60;99.90;;;;;;5006047;28;20005;-76
2024/01/24 11:27:46;;;;;;;;;;;10.60;99.90;;;;;;5025216;28;19913;-76
2024/01/24 11:30:36;;;;;;;;;;;10.60;99.90;;;;;;5035164;28;19940;-75
2024/01/24 11:33:23;;;;;;;;;;;10.50;99.90;;;;;;5006165;28;19949;-75
2024/01/24 11:36:11;;;;;;;;;;;10.60;99.90;;;;;;5022814;28;19916;-76
2024/01/24 11:38:57;;;;;;;;;;;10.60;99.90;;;;;;5040060;28;19917;-75
2024/01/24 11:41:44;;;;;;;;;;;10.60;99.90;;;;;;5038529;28;19991;-75
2024/01/24 11:44:29;;;;;;;;;;;10.60;99.90;;;;;;5035788;28;20028;-75
2024/01/24 11:47:15;;;;;;;;;;;10.60;99.90;;;;;;5007241;28;19953;-76
2024/01/24 11:50:01;;;;;;;;;;;10.50;99.90;;;;;;5049025;28;19927;-76
2024/01/24 11:52:47;;;;;;;;;;;10.50;99.90;;;;;;5025669;28;19913;-75
2024/01/24 11:55:33;;;;;;;;;;;10.50;99.90;;;;;;5026110;28;20340;-76
2024/01/24 11:58:25;;;;;;;;;;;10.50;99.90;;;;;;5035552;28;20032;-76
2024/01/24 12:01:11;;;;;;;;;;;10.50;99.90;;;;;;5028530;28;19924;-77
2024/01/24 12:03:57;;;;;;;;;;;10.50;99.90;;;;;;5017329;28;20674;-76
2024/01/24 12:06:43;;;;;;;;;;;10.40;99.90;;;;;;5021030;28;19936;-76
2024/01/24 12:09:29;;;;;;;;;;;10.50;99.90;;;;;;5040225;28;19983;-75
2024/01/24 12:12:15;;;;;;;;;;;10.50;99.90;;;;;;5039974;28;20050;-75
2024/01/24 12:15:01;;;;;;;;;;;10.40;99.90;;;;;;5019972;28;19971;-76
2024/01/24 12:17:46;;;;;;;;;;;10.40;99.90;;;;;;5018299;28;19917;-76
2024/01/24 12:20:33;;;;;;;;;;;10.50;99.90;;;;;;5016165;28;19916;-76
2024/01/24 12:23:19;;;;;;;;;;;10.40;99.90;;;;;;5023211;28;19927;-77
2024/01/24 12:26:05;;;;;;;;;;;10.40;99.90;;;;;;5005473;28;19917;-76
2024/01/24 12:28:50;;;;;;;;;;;10.50;99.90;;;;;;5017521;28;19924;-76
2024/01/24 12:31:38;;;;;;;;;;;10.50;99.90;;;;;;5005686;28;20012;-75
2024/01/24 12:34:27;;;;;;;;;;;10.40;99.90;;;;;;5004975;28;19947;-76
2024/01/24 12:37:14;;;;;;;;;;;10.50;99.90;;;;;;5019947;28;19917;-76
2024/01/24 12:40:05;;;;;;;;;;;10.50;99.90;;;;;;5036417;28;19952;-76
2024/01/24 12:42:51;;;;;;;;;;;10.50;99.90;;;;;;5042426;28;19928;-77
2024/01/24 12:45:36;;;;;;;;;;;10.50;99.90;;;;;;5043431;28;20334;-76
2024/01/24 12:48:22;;;;;;;;;;;10.50;99.90;;;;;;5021706;28;19917;-77
2024/01/24 12:51:08;;;;;;;;;;;10.40;99.90;;;;;;5023049;28;20329;-75
2024/01/24 12:53:54;;;;;;;;;;;10.40;99.90;;;;;;5045099;28;19913;-77
2024/01/24 12:56:40;;;;;;;;;;;10.50;99.90;;;;;;5036337;28;19913;-77
2024/01/24 12:59:26;;;;;;;;;;;10.50;99.90;;;;;;5008699;28;19921;-76
2024/01/24 13:02:13;;;;;;;;;;;10.50;99.90;;;;;;5029842;28;19921;-77
2024/01/24 13:04:58;;;;;;;;;;;10.50;99.90;;;;;;5008327;28;19987;-75
2024/01/24 13:07:44;;;;;;;;;;;10.50;99.90;;;;;;5022146;28;19917;-76
2024/01/24 13:10:32;;;;;;;;;;;10.30;99.90;;;;;;5036897;28;19917;-76
2024/01/24 13:13:18;;;;;;;;;;;10.30;99.90;;;;;;5023001;28;19917;-75
2024/01/24 13:16:04;;;;;;;;;;;10.30;99.90;;;;;;5028185;28;20008;-76
2024/01/24 13:18:50;;;;;;;;;;;10.20;99.90;;;;;;5023199;28;19913;-76
2024/01/24 13:21:37;;;;;;;;;;;10.20;99.90;;;;;;5033506;28;19987;-76
2024/01/24 13:24:23;;;;;;;;;;;10.20;99.90;;;;;;5057844;28;20277;-76
2024/01/24 13:27:09;;;;;;;;;;;10.10;99.90;;;;;;5033544;28;20028;-76
2024/01/24 13:29:55;;;;;;;;;;;10.20;99.90;;;;;;5029773;28;20289;-76
2024/01/24 13:32:40;;;;;;;;;;;10.20;99.90;;;;;;5040795;28;19917;-77
2024/01/24 13:35:26;;;;;;;;;;;10.20;99.90;;;;;;5029831;28;19927;-77
2024/01/24 13:38:13;;;;;;;;;;;10.10;99.90;;;;;;5013734;28;20565;-76
2024/01/24 13:40:58;;;;;;;;;;;10.10;99.90;;;;;;5021981;28;19912;-78
2024/01/24 13:43:44;;;;;;;;;;;10.00;99.90;;;;;;5027595;28;19979;-77
2024/01/24 13:46:30;;;;;;;;;;;10.00;99.90;;;;;;5028475;28;19916;-76
2024/01/24 13:49:17;;;;;;;;;;;9.90;99.90;;;;;;5007256;28;19921;-75
2024/01/24 13:52:03;;;;;;;;;;;10.00;99.90;;;;;;5021315;28;20357;-75
2024/01/24 13:54:49;;;;;;;;;;;9.90;99.90;;;;;;5022810;28;19917;-75
2024/01/24 13:57:35;;;;;;;;;;;9.90;99.90;;;;;;5020198;28;19917;-76
2024/01/24 14:00:21;;;;;;;;;;;9.90;99.90;;;;;;5024549;28;19916;-75
2024/01/24 14:03:07;;;;;;;;;;;9.90;99.90;;;;;;5025959;28;19916;-74
2024/01/24 14:05:53;;;;;;;;;;;9.80;99.90;;;;;;5022555;28;20059;-74
2024/01/24 14:08:39;;;;;;;;;;;9.80;99.90;;;;;;5033993;28;19928;-75
2024/01/24 14:11:25;;;;;;;;;;;9.70;99.90;;;;;;5030219;28;20280;-75
2024/01/24 14:14:11;;;;;;;;;;;9.70;99.90;;;;;;5021585;28;19940;-75
2024/01/24 14:16:57;;;;;;;;;;;9.70;99.90;;;;;;5042293;28;20022;-75
2024/01/24 14:19:42;;;;;;;;;;;9.60;99.90;;;;;;5020550;28;19917;-74
2024/01/24 14:22:28;;;;;;;;;;;9.50;99.90;;;;;;5032328;28;20008;-75
2024/01/24 14:25:14;;;;;;;;;;;9.50;99.90;;;;;;5033735;28;20008;-75
2024/01/24 14:28:00;;;;;;;;;;;9.50;99.90;;;;;;5039716;28;19990;-75
2024/01/24 14:30:46;;;;;;;;;;;9.50;99.90;;;;;;5033095;28;19925;-75
2024/01/24 14:33:32;;;;;;;;;;;9.50;99.90;;;;;;5006862;28;19943;-75
2024/01/24 14:36:18;;;;;;;;;;;9.50;99.90;;;;;;5033783;28;19971;-75
2024/01/24 14:39:04;;;;;;;;;;;9.50;99.90;;;;;;5026410;28;19913;-75
2024/01/24 14:41:50;;;;;;;;;;;9.40;99.90;;;;;;5038511;28;19923;-75
2024/01/24 14:44:36;;;;;;;;;;;9.40;99.90;;;;;;5020446;28;19959;-75
2024/01/24 14:47:22;;;;;;;;;;;9.40;99.90;;;;;;5020366;28;20351;-76
2024/01/24 14:50:08;;;;;;;;;;;9.40;99.90;;;;;;5025569;28;20015;-75
2024/01/24 14:52:54;;;;;;;;;;;9.40;99.90;;;;;;5038739;28;19916;-75
2024/01/24 14:55:40;;;;;;;;;;;9.40;99.90;;;;;;5040340;28;20004;-75
2024/01/24 14:58:26;;;;;;;;;;;9.40;99.90;;;;;;5031869;28;19927;-75
2024/01/24 15:01:12;;;;;;;;;;;9.40;99.90;;;;;;5035267;28;19939;-75
2024/01/24 15:03:59;;;;;;;;;;;9.40;99.90;;;;;;5033299;28;20262;-76
2024/01/24 15:06:44;;;;;;;;;;;9.40;99.90;;;;;;5018888;28;19929;-75
2024/01/24 15:09:30;;;;;;;;;;;9.40;99.90;;;;;;5038360;28;20339;-76
2024/01/24 15:12:16;;;;;;;;;;;9.40;99.90;;;;;;5024101;28;19917;-75
2024/01/24 15:15:03;;;;;;;;;;;9.40;99.90;;;;;;5034043;28;20295;-75
2024/01/24 15:17:49;;;;;;;;;;;9.30;99.90;;;;;;5026028;28;20230;-75
2024/01/24 15:20:39;;;;;;;;;;;9.30;99.90;;;;;;5035092;28;19913;-73
2024/01/24 15:23:24;;;;;;;;;;;9.30;99.90;;;;;;5033133;28;19917;-75
2024/01/24 15:26:12;;;;;;;;;;;9.30;99.90;;;;;;5019230;28;19924;-76
2024/01/24 15:28:58;;;;;;;;;;;9.30;99.90;;;;;;5022850;28;19965;-75
2024/01/24 15:31:44;;;;;;;;;;;9.30;99.90;;;;;;5037943;28;20006;-75
2024/01/24 15:34:30;;;;;;;;;;;9.30;99.90;;;;;;5038553;28;20406;-79
2024/01/24 15:37:17;;;;;;;;;;;9.30;99.90;;;;;;5039900;28;20054;-76
2024/01/24 15:40:04;;;;;;;;;;;9.30;99.90;;;;;;5019866;28;20338;-77
2024/01/24 15:42:52;;;;;;;;;;;9.30;99.90;;;;;;5006041;28;19925;-78
2024/01/24 15:45:38;;;;;;;;;;;9.40;99.90;;;;;;5007026;28;20000;-77
2024/01/24 15:48:24;;;;;;;;;;;9.40;99.90;;;;;;5027429;28;20328;-78
2024/01/24 15:51:10;;;;;;;;;;;9.40;99.90;;;;;;5025049;28;20341;-77
2024/01/24 15:53:56;;;;;;;;;;;9.40;99.90;;;;;;5024882;28;20012;-76
2024/01/24 15:56:41;;;;;;;;;;;9.30;99.90;;;;;;5019218;28;19913;-77
2024/01/24 15:59:27;;;;;;;;;;;9.30;99.90;;;;;;5020438;28;19913;-77
2024/01/24 16:02:14;;;;;;;;;;;9.40;99.90;;;;;;5025804;28;19931;-78
2024/01/24 16:05:01;;;;;;;;;;;9.30;99.90;;;;;;5026093;28;19924;-76
2024/01/24 16:07:47;;;;;;;;;;;9.40;99.90;;;;;;5009514;28;19952;-76
2024/01/24 16:10:33;;;;;;;;;;;9.40;99.90;;;;;;5020649;28;19928;-77
2024/01/24 16:13:19;;;;;;;;;;;9.40;99.90;;;;;;5020081;28;20296;-77